createdAt,value
2022-12-18T00:01:18.616Z,37.57
2022-12-18T00:03:47.036Z,62.07
2022-12-18T00:06:15.498Z,37.13
2022-12-18T00:08:43.201Z,55.30
2022-12-18T00:11:13.811Z,34.43
2022-12-18T00:13:42.021Z,56.40
2022-12-18T00:16:12.360Z,47.57
2022-12-18T00:18:42.126Z,48.83
2022-12-18T00:21:12.827Z,49.97
2022-12-18T00:23:41.882Z,56.57
2022-12-18T00:26:13.072Z,52.77
2022-12-18T00:28:40.744Z,62.83
2022-12-18T00:31:12.238Z,42.83
2022-12-18T00:33:41.559Z,59.30
2022-12-18T00:36:12.460Z,50.77
2022-12-18T00:38:40.619Z,55.80
2022-12-18T00:41:09.525Z,48.50
2022-12-18T00:43:37.037Z,53.23
2022-12-18T00:46:08.194Z,46.77
2022-12-18T00:48:36.018Z,52.57
2022-12-18T00:51:04.871Z,42.30
2022-12-18T00:53:32.407Z,38.80
2022-12-18T00:55:59.963Z,37.67
2022-12-18T00:58:27.476Z,35.90
2022-12-18T01:00:56.506Z,35.30
2022-12-18T01:03:24.233Z,35.13
2022-12-18T01:05:51.791Z,36.30
2022-12-18T01:08:20.648Z,43.60
2022-12-18T01:10:48.234Z,64.17
2022-12-18T01:13:15.799Z,52.03
2022-12-18T01:15:50.189Z,53.50
2022-12-18T01:18:17.708Z,45.03
2022-12-18T01:20:45.275Z,39.67
2022-12-18T01:23:12.768Z,35.43
2022-12-18T01:25:41.614Z,31.67
2022-12-18T01:28:09.136Z,29.10
2022-12-18T01:30:36.675Z,29.13
2022-12-18T01:33:06.056Z,34.97
2022-12-18T01:35:33.594Z,32.40
2022-12-18T01:38:01.082Z,31.23
2022-12-18T01:40:28.575Z,28.93
2022-12-18T01:42:57.750Z,25.97
2022-12-18T01:45:30.110Z,28.20
2022-12-18T01:48:00.252Z,27.83
2022-12-18T01:50:32.389Z,24.80
2022-12-18T01:53:04.042Z,28.20
2022-12-18T01:55:37.092Z,26.10
2022-12-18T01:58:06.806Z,27.57
2022-12-18T02:00:34.374Z,25.83
2022-12-18T02:03:02.050Z,27.37
2022-12-18T02:05:42.088Z,25.97
2022-12-18T02:08:19.026Z,22.43
2022-12-18T02:10:53.747Z,23.50
2022-12-18T02:13:31.955Z,23.27
2022-12-18T02:16:08.888Z,21.83
2022-12-18T02:18:40.336Z,22.03
2022-12-18T02:21:20.043Z,27.47
2022-12-18T02:23:58.147Z,25.63
2022-12-18T02:26:32.045Z,23.97
2022-12-18T02:29:06.930Z,26.87
2022-12-18T02:31:41.119Z,25.00
2022-12-18T02:34:11.279Z,23.47
2022-12-18T02:36:42.744Z,26.00
2022-12-18T02:39:13.658Z,26.63
2022-12-18T02:41:43.230Z,25.40
2022-12-18T02:44:13.171Z,27.97
2022-12-18T02:46:44.216Z,27.77
2022-12-18T02:49:28.104Z,24.07
2022-12-18T02:52:01.287Z,27.43
2022-12-18T02:54:40.133Z,25.07
2022-12-18T02:57:17.609Z,28.60
2022-12-18T02:59:59.329Z,25.23
2022-12-18T03:02:36.007Z,26.07
2022-12-18T03:05:10.010Z,24.67
2022-12-18T03:07:41.261Z,25.10
2022-12-18T03:10:13.647Z,26.77
2022-12-18T03:12:48.096Z,27.77
2022-12-18T03:15:19.976Z,31.00
2022-12-18T03:17:53.243Z,26.60
2022-12-18T03:20:23.654Z,30.77
2022-12-18T03:22:55.192Z,34.40
2022-12-18T03:25:25.669Z,33.43
2022-12-18T03:27:58.696Z,32.00
2022-12-18T03:30:28.393Z,30.37
2022-12-18T03:33:03.893Z,34.90
2022-12-18T03:35:35.411Z,34.00
2022-12-18T03:38:03.159Z,34.80
2022-12-18T03:40:41.616Z,32.73
2022-12-18T03:43:18.665Z,33.00
2022-12-18T03:45:54.053Z,33.60
2022-12-18T03:48:28.487Z,30.73
2022-12-18T03:50:59.828Z,30.17
2022-12-18T03:53:37.073Z,29.60
2022-12-18T03:56:06.806Z,27.07
2022-12-18T03:58:39.190Z,24.70
2022-12-18T04:01:11.960Z,25.77
2022-12-18T04:03:41.172Z,24.33
2022-12-18T04:06:09.738Z,27.00
2022-12-18T04:08:37.680Z,25.10
2022-12-18T04:11:05.555Z,24.30
2022-12-18T04:13:38.741Z,26.10
2022-12-18T04:16:07.277Z,26.50
2022-12-18T04:18:34.836Z,24.20
2022-12-18T04:21:02.406Z,26.37
2022-12-18T04:23:30.207Z,24.10
2022-12-18T04:25:57.714Z,24.77
2022-12-18T04:28:25.248Z,25.73
2022-12-18T04:30:54.196Z,26.57
2022-12-18T04:33:21.768Z,24.90
2022-12-18T04:35:49.330Z,25.63
2022-12-18T04:38:16.870Z,22.93
2022-12-18T04:40:45.160Z,26.37
2022-12-18T04:43:12.766Z,24.83
2022-12-18T04:45:41.010Z,23.03
2022-12-18T04:48:09.894Z,24.37
2022-12-18T04:50:38.130Z,24.47
2022-12-18T04:53:05.690Z,25.60
2022-12-18T04:55:33.216Z,23.20
2022-12-18T04:58:00.740Z,25.33
2022-12-18T05:00:28.712Z,23.40
2022-12-18T05:02:56.456Z,22.73
2022-12-18T05:05:25.446Z,22.80
2022-12-18T05:07:52.983Z,25.03
2022-12-18T05:10:20.539Z,21.67
2022-12-18T05:13:04.766Z,21.97
2022-12-18T05:15:33.037Z,22.20
2022-12-18T05:18:01.910Z,25.23
2022-12-18T05:20:31.294Z,21.30
2022-12-18T05:22:58.844Z,23.50
2022-12-18T05:25:26.719Z,21.97
2022-12-18T05:27:54.247Z,20.70
2022-12-18T05:30:21.815Z,21.03
2022-12-18T05:32:49.348Z,19.63
2022-12-18T05:35:16.943Z,20.40
2022-12-18T05:37:45.794Z,22.33
2022-12-18T05:40:14.008Z,25.30
2022-12-18T05:42:41.522Z,23.07
2022-12-18T05:45:09.734Z,22.97
2022-12-18T05:47:37.284Z,23.97
2022-12-18T05:50:07.847Z,23.83
2022-12-18T05:52:35.403Z,20.47
2022-12-18T05:55:05.316Z,24.77
2022-12-18T05:57:32.823Z,23.23
2022-12-18T06:00:00.370Z,23.47
2022-12-18T06:02:28.015Z,23.43
2022-12-18T06:04:55.641Z,24.07
2022-12-18T06:07:23.163Z,21.63
2022-12-18T06:09:50.729Z,23.53
2022-12-18T06:12:19.584Z,23.57
2022-12-18T06:14:47.114Z,24.27
2022-12-18T06:17:14.676Z,21.77
2022-12-18T06:19:42.488Z,23.30
2022-12-18T06:22:09.998Z,26.77
2022-12-18T06:24:37.494Z,26.13
2022-12-18T06:27:05.209Z,25.07
2022-12-18T06:29:34.084Z,23.90
2022-12-18T06:32:01.608Z,23.03
2022-12-18T06:34:29.196Z,23.40
2022-12-18T06:36:56.724Z,23.23
2022-12-18T06:39:24.296Z,23.40
2022-12-18T06:41:51.902Z,23.03
2022-12-18T06:44:19.550Z,22.77
2022-12-18T06:46:48.382Z,23.27
2022-12-18T06:49:16.886Z,24.83
2022-12-18T06:51:44.647Z,24.53
2022-12-18T06:54:13.030Z,23.77
2022-12-18T06:56:40.683Z,24.60
2022-12-18T06:59:08.252Z,23.27
2022-12-18T07:01:35.877Z,22.70
2022-12-18T07:04:04.900Z,21.23
2022-12-18T07:06:32.443Z,21.83
2022-12-18T07:08:59.964Z,21.53
2022-12-18T07:11:27.478Z,21.77
2022-12-18T07:13:55.307Z,23.03
2022-12-18T07:16:25.682Z,22.60
2022-12-18T07:18:53.715Z,22.23
2022-12-18T07:21:23.670Z,22.67
2022-12-18T07:23:51.448Z,22.60
2022-12-18T07:26:21.512Z,24.43
2022-12-18T07:28:49.580Z,23.40
2022-12-18T07:31:19.237Z,24.07
2022-12-18T07:33:47.717Z,24.53
2022-12-18T07:36:15.596Z,24.83
2022-12-18T07:38:44.873Z,24.33
2022-12-18T07:41:14.463Z,23.87
2022-12-18T07:43:43.666Z,24.43
2022-12-18T07:46:13.371Z,25.70
2022-12-18T07:48:41.116Z,26.80
2022-12-18T07:51:09.311Z,24.43
2022-12-18T07:53:38.317Z,26.23
2022-12-18T07:56:28.260Z,27.27
2022-12-18T07:58:56.963Z,23.37
2022-12-18T08:01:24.582Z,25.90
2022-12-18T08:03:52.665Z,26.03
2022-12-18T08:06:22.517Z,27.43
2022-12-18T08:08:53.144Z,25.33
2022-12-18T08:11:22.343Z,27.00
2022-12-18T08:13:49.879Z,25.23
2022-12-18T08:16:18.038Z,25.70
2022-12-18T08:18:45.613Z,28.73
2022-12-18T08:21:15.955Z,28.63
2022-12-18T08:23:44.236Z,26.40
2022-12-18T08:26:12.525Z,26.27
2022-12-18T08:28:42.209Z,25.93
2022-12-18T08:31:10.236Z,25.37
2022-12-18T08:33:40.232Z,25.40
2022-12-18T08:36:10.970Z,28.07
2022-12-18T08:38:39.051Z,27.43
2022-12-18T08:41:08.658Z,27.27
2022-12-18T08:43:53.744Z,28.83
2022-12-18T08:46:24.388Z,29.23
2022-12-18T08:48:53.406Z,28.27
2022-12-18T08:51:21.486Z,30.07
2022-12-18T08:53:49.525Z,26.73
2022-12-18T08:56:17.140Z,26.00
2022-12-18T08:58:44.751Z,28.47
2022-12-18T09:01:14.672Z,26.30
2022-12-18T09:03:44.219Z,31.60
2022-12-18T09:06:15.539Z,26.63
2022-12-18T09:08:43.466Z,27.63
2022-12-18T09:11:15.166Z,26.27
2022-12-18T09:13:43.007Z,27.60
2022-12-18T09:16:10.737Z,26.30
2022-12-18T09:18:38.867Z,26.63
2022-12-18T09:21:13.162Z,23.70
2022-12-18T09:23:41.120Z,21.40
2022-12-18T09:26:09.025Z,30.27
2022-12-18T09:28:36.621Z,25.90
2022-12-18T09:31:08.589Z,27.10
2022-12-18T09:33:36.639Z,25.63
2022-12-18T09:36:05.755Z,26.57
2022-12-18T09:38:35.672Z,25.00
2022-12-18T09:41:08.570Z,23.30
2022-12-18T09:43:43.136Z,24.00
2022-12-18T09:46:16.569Z,23.53
2022-12-18T09:48:49.583Z,24.50
2022-12-18T09:51:21.916Z,22.97
2022-12-18T09:53:57.513Z,22.87
2022-12-18T09:56:36.902Z,25.43
2022-12-18T09:59:06.136Z,29.47
2022-12-18T10:01:41.719Z,27.30
2022-12-18T10:04:11.625Z,30.10
2022-12-18T10:06:46.366Z,31.50
2022-12-18T10:09:26.103Z,28.43
2022-12-18T10:12:01.169Z,27.83
2022-12-18T10:14:36.214Z,30.73
2022-12-18T10:17:15.649Z,31.27
2022-12-18T10:19:51.200Z,27.50
2022-12-18T10:22:29.206Z,28.60
2022-12-18T10:25:04.972Z,31.73
2022-12-18T10:27:32.824Z,28.23
2022-12-18T10:30:03.355Z,30.77
2022-12-18T10:32:32.433Z,26.60
2022-12-18T10:35:01.236Z,28.57
2022-12-18T10:37:31.481Z,24.90
2022-12-18T10:40:19.923Z,19.30
2022-12-18T10:43:05.861Z,29.40
2022-12-18T10:45:33.418Z,29.00
2022-12-18T10:48:01.156Z,27.27
2022-12-18T10:51:01.834Z,23.67
2022-12-18T10:53:23.430Z,33.13
2022-12-18T10:55:55.551Z,31.37
2022-12-18T10:58:26.936Z,30.10
2022-12-18T11:01:10.676Z,26.33
2022-12-18T11:03:39.880Z,29.93
2022-12-18T11:06:10.354Z,25.00
2022-12-18T11:08:39.420Z,30.83
2022-12-18T11:11:22.218Z,28.20
2022-12-18T11:14:02.604Z,22.03
2022-12-18T11:16:32.596Z,22.40
2022-12-18T11:19:17.066Z,19.70
2022-12-18T11:21:44.851Z,21.40
2022-12-18T11:24:23.192Z,19.87
2022-12-18T11:26:57.827Z,22.10
2022-12-18T11:29:33.463Z,24.63
2022-12-18T11:32:36.822Z,29.27
2022-12-18T11:35:13.969Z,21.83
2022-12-18T11:37:44.538Z,20.67
2022-12-18T11:40:18.238Z,18.93
2022-12-18T11:42:54.000Z,22.47
2022-12-18T11:45:32.643Z,19.10
2022-12-18T11:48:06.619Z,19.77
2022-12-18T11:50:45.991Z,18.40
2022-12-18T11:53:14.268Z,18.97
2022-12-18T11:55:48.455Z,20.73
2022-12-18T11:58:31.517Z,26.87
2022-12-18T12:01:09.847Z,34.33
2022-12-18T12:04:10.660Z,19.43
2022-12-18T12:06:48.468Z,20.23
2022-12-18T12:09:24.833Z,39.00
2022-12-18T12:12:04.943Z,51.57
2022-12-18T12:14:55.647Z,52.43
2022-12-18T12:17:32.857Z,39.27
2022-12-18T12:20:09.441Z,29.67
2022-12-18T12:22:44.056Z,23.70
2022-12-18T12:25:29.002Z,27.87
2022-12-18T12:28:13.010Z,48.80
2022-12-18T12:30:52.886Z,29.43
2022-12-18T12:33:36.158Z,26.27
2022-12-18T12:36:12.315Z,27.03
2022-12-18T12:38:51.550Z,30.83
2022-12-18T12:41:40.528Z,57.87
2022-12-18T12:44:14.831Z,57.83
2022-12-18T12:46:45.364Z,33.40
2022-12-18T12:49:19.315Z,58.70
2022-12-18T12:51:52.020Z,56.03
2022-12-18T12:54:23.266Z,57.20
2022-12-18T12:56:59.211Z,55.97
2022-12-18T12:59:33.464Z,34.40
2022-12-18T13:02:15.260Z,23.33
2022-12-18T13:04:50.073Z,25.67
2022-12-18T13:07:23.704Z,40.90
2022-12-18T13:10:17.234Z,28.30
2022-12-18T13:12:56.556Z,27.97
2022-12-18T13:15:26.511Z,46.50
2022-12-18T13:18:16.158Z,33.67
2022-12-18T13:20:52.245Z,25.27
2022-12-18T13:23:29.478Z,18.50
2022-12-18T13:25:58.111Z,18.13
2022-12-18T13:28:53.711Z,18.90
2022-12-18T13:32:11.316Z,18.47
2022-12-18T13:34:42.580Z,18.63
2022-12-18T13:37:41.949Z,19.77
2022-12-18T13:40:56.958Z,23.27
2022-12-18T13:43:28.608Z,35.50
2022-12-18T13:46:19.887Z,36.33
2022-12-18T13:48:54.030Z,48.33
2022-12-18T13:51:24.056Z,34.13
2022-12-18T13:53:53.947Z,34.00
2022-12-18T13:56:26.404Z,39.97
2022-12-18T13:59:18.812Z,47.47
2022-12-18T14:01:53.528Z,38.37
2022-12-18T14:04:25.099Z,38.40
2022-12-18T14:06:57.345Z,42.47
2022-12-18T14:09:28.581Z,48.47
2022-12-18T14:12:19.244Z,48.33
2022-12-18T14:14:49.066Z,42.93
2022-12-18T14:17:19.684Z,37.00
2022-12-18T14:19:49.585Z,19.30
2022-12-18T14:22:20.558Z,17.00
2022-12-18T14:24:49.384Z,17.93
2022-12-18T14:27:25.735Z,17.83
2022-12-18T14:29:53.830Z,17.27
2022-12-18T14:32:23.168Z,17.97
2022-12-18T14:34:52.384Z,18.53
2022-12-18T14:37:24.804Z,19.23
2022-12-18T14:39:58.874Z,19.43
2022-12-18T14:42:28.971Z,30.07
2022-12-18T14:45:41.092Z,38.93
2022-12-18T14:48:14.567Z,43.57
2022-12-18T14:50:44.230Z,45.00
2022-12-18T14:53:25.121Z,45.50
2022-12-18T14:55:52.748Z,45.23
2022-12-18T14:58:20.655Z,48.13
2022-12-18T15:00:48.463Z,42.30
2022-12-18T15:03:20.784Z,49.17
2022-12-18T15:05:48.813Z,50.20
2022-12-18T15:08:32.131Z,33.60
2022-12-18T15:11:00.500Z,20.37
2022-12-18T15:13:28.965Z,21.77
2022-12-18T15:15:58.013Z,22.03
2022-12-18T15:18:33.954Z,23.10
2022-12-18T15:21:09.898Z,25.70
2022-12-18T15:23:48.107Z,38.73
2022-12-18T15:26:17.886Z,40.13
2022-12-18T15:28:48.017Z,21.93
2022-12-18T15:31:30.495Z,34.10
2022-12-18T15:34:14.376Z,27.50
2022-12-18T15:36:42.243Z,32.00
2022-12-18T15:39:14.157Z,29.27
2022-12-18T15:42:01.738Z,21.47
2022-12-18T15:44:28.469Z,25.73
2022-12-18T15:46:55.975Z,24.87
2022-12-18T15:49:23.735Z,22.67
2022-12-18T15:51:54.715Z,23.73
2022-12-18T15:54:44.425Z,23.33
2022-12-18T15:57:23.803Z,21.53
2022-12-18T15:59:51.580Z,27.27
2022-12-18T16:02:20.689Z,20.57
2022-12-18T16:04:48.369Z,19.57
2022-12-18T16:07:19.322Z,23.07
2022-12-18T16:09:55.196Z,26.93
2022-12-18T16:12:26.197Z,38.50
2022-12-18T16:14:53.722Z,36.83
2022-12-18T16:17:21.253Z,31.70
2022-12-18T16:19:48.926Z,30.20
2022-12-18T16:22:22.867Z,39.80
2022-12-18T16:24:51.370Z,29.03
2022-12-18T16:27:20.891Z,22.30
2022-12-18T16:29:48.572Z,21.23
2022-12-18T16:32:18.105Z,20.47
2022-12-18T16:34:46.857Z,21.87
2022-12-18T16:37:15.978Z,22.57
2022-12-18T16:39:43.940Z,19.07
2022-12-18T16:42:15.494Z,18.50
2022-12-18T16:44:45.454Z,20.10
2022-12-18T16:47:14.943Z,19.00
2022-12-18T16:49:43.062Z,18.40
2022-12-18T16:52:10.601Z,18.93
2022-12-18T16:54:38.114Z,19.17
2022-12-18T16:57:06.078Z,19.73
2022-12-18T16:59:33.853Z,20.07
2022-12-18T17:02:14.294Z,19.63
2022-12-18T17:04:41.990Z,21.83
2022-12-18T17:07:09.877Z,22.37
2022-12-18T17:09:41.789Z,19.40
2022-12-18T17:12:09.568Z,21.30
2022-12-18T17:14:38.049Z,21.77
2022-12-18T17:17:20.999Z,28.33
2022-12-18T17:19:49.693Z,25.67
2022-12-18T17:22:17.241Z,32.20
2022-12-18T17:24:44.759Z,28.80
2022-12-18T17:27:12.297Z,28.20
2022-12-18T17:29:45.375Z,20.47
2022-12-18T17:32:16.046Z,28.37
2022-12-18T17:34:43.660Z,32.90
2022-12-18T17:37:11.195Z,22.07
2022-12-18T17:39:39.102Z,21.93
2022-12-18T17:42:06.775Z,33.60
2022-12-18T17:44:35.494Z,28.10
2022-12-18T17:47:03.123Z,36.80
2022-12-18T17:49:32.190Z,40.13
2022-12-18T17:51:59.691Z,40.43
2022-12-18T17:54:27.245Z,38.23
2022-12-18T17:56:54.777Z,33.63
2022-12-18T17:59:22.581Z,31.60
2022-12-18T18:01:50.322Z,37.33
2022-12-18T18:04:18.035Z,29.27
2022-12-18T18:06:46.955Z,37.20
2022-12-18T18:09:16.484Z,44.10
2022-12-18T18:12:02.368Z,37.63
2022-12-18T18:14:30.099Z,30.90
2022-12-18T18:17:04.027Z,33.07
2022-12-18T18:19:34.061Z,29.83
2022-12-18T18:22:03.244Z,26.73
2022-12-18T18:24:31.771Z,27.97
2022-12-18T18:27:00.413Z,30.07
2022-12-18T18:29:30.213Z,25.30
2022-12-18T18:31:58.083Z,27.07
2022-12-18T18:34:27.986Z,26.50
2022-12-18T18:36:55.858Z,22.80
2022-12-18T18:39:24.807Z,26.03
2022-12-18T18:41:52.633Z,23.47
2022-12-18T18:44:24.880Z,27.00
2022-12-18T18:46:55.008Z,22.13
2022-12-18T18:49:24.079Z,22.03
2022-12-18T18:51:51.919Z,25.27
2022-12-18T18:54:19.594Z,23.73
2022-12-18T18:57:19.511Z,31.80
2022-12-18T18:59:36.961Z,34.83
2022-12-18T19:02:05.185Z,35.00
2022-12-18T19:04:33.335Z,24.30
2022-12-18T19:07:00.923Z,24.10
2022-12-18T19:09:30.325Z,26.53
2022-12-18T19:12:22.723Z,24.87
2022-12-18T19:14:50.336Z,26.57
2022-12-18T19:17:17.908Z,28.67
2022-12-18T19:19:45.852Z,29.00
2022-12-18T19:22:14.045Z,33.63
2022-12-18T19:24:41.668Z,31.40
2022-12-18T19:27:10.935Z,27.07
2022-12-18T19:29:38.454Z,26.37
2022-12-18T19:32:06.371Z,27.87
2022-12-18T19:34:34.396Z,32.90
2022-12-18T19:37:02.024Z,29.67
2022-12-18T19:39:29.767Z,29.03
2022-12-18T19:41:57.678Z,35.40
2022-12-18T19:44:26.769Z,36.43
2022-12-18T19:46:54.303Z,39.30
2022-12-18T19:49:21.853Z,30.30
2022-12-18T19:51:50.268Z,30.63
2022-12-18T19:54:18.361Z,28.30
2022-12-18T19:56:46.273Z,28.63
2022-12-18T19:59:14.380Z,28.43
2022-12-18T20:01:43.417Z,29.10
2022-12-18T20:04:11.143Z,29.37
2022-12-18T20:06:47.870Z,29.53
2022-12-18T20:09:15.898Z,28.90
2022-12-18T20:11:44.180Z,28.67
2022-12-18T20:14:12.641Z,28.73
2022-12-18T20:16:40.650Z,29.27
2022-12-18T20:19:11.666Z,29.67
2022-12-18T20:21:40.239Z,30.47
2022-12-18T20:24:09.216Z,29.40
2022-12-18T20:26:36.864Z,27.63
2022-12-18T20:29:04.561Z,27.77
2022-12-18T20:31:32.359Z,27.97
2022-12-18T20:34:01.587Z,27.63
2022-12-18T20:36:33.075Z,25.80
2022-12-18T20:39:05.223Z,25.43
2022-12-18T20:41:38.549Z,25.90
2022-12-18T20:44:10.295Z,25.63
2022-12-18T20:46:50.119Z,25.87
2022-12-18T20:49:17.635Z,26.47
2022-12-18T20:51:46.510Z,25.03
2022-12-18T20:54:14.049Z,25.33
2022-12-18T20:56:41.579Z,24.33
2022-12-18T20:59:11.283Z,28.63
2022-12-18T21:01:39.742Z,28.30
2022-12-18T21:04:11.523Z,27.17
2022-12-18T21:06:39.237Z,25.57
2022-12-18T21:09:08.112Z,27.43
2022-12-18T21:11:53.019Z,25.53
2022-12-18T21:14:22.290Z,25.20
2022-12-18T21:16:50.567Z,27.50
2022-12-18T21:19:20.321Z,27.23
2022-12-18T21:21:48.277Z,28.47
2022-12-18T21:24:17.610Z,29.97
2022-12-18T21:26:46.395Z,26.80
2022-12-18T21:29:16.404Z,26.10
2022-12-18T21:31:45.318Z,30.87
2022-12-18T21:34:17.150Z,28.77
2022-12-18T21:36:44.668Z,29.63
2022-12-18T21:39:13.819Z,31.40
2022-12-18T21:42:00.973Z,31.17
2022-12-18T21:44:28.746Z,29.67
2022-12-18T21:47:02.414Z,29.83
2022-12-18T21:49:33.814Z,29.23
2022-12-18T21:52:02.190Z,28.80
2022-12-18T21:54:30.617Z,29.73
2022-12-18T21:57:01.984Z,30.90
2022-12-18T21:59:31.089Z,30.10
2022-12-18T22:02:00.305Z,28.90
2022-12-18T22:04:28.576Z,29.77
2022-12-18T22:06:57.384Z,31.30
2022-12-18T22:09:26.649Z,30.90
2022-12-18T22:11:54.476Z,33.13
2022-12-18T22:14:24.439Z,31.93
2022-12-18T22:16:53.353Z,29.73
2022-12-18T22:19:20.970Z,29.63
2022-12-18T22:21:50.079Z,31.63
2022-12-18T22:24:19.617Z,31.73
2022-12-18T22:26:47.904Z,32.97
2022-12-18T22:29:35.843Z,30.33
2022-12-18T22:32:05.469Z,31.20
2022-12-18T22:34:36.432Z,31.83
2022-12-18T22:37:04.491Z,32.33
2022-12-18T22:39:32.205Z,31.73
2022-12-18T22:41:59.988Z,33.07
2022-12-18T22:44:28.153Z,32.97
2022-12-18T22:47:05.646Z,32.43
2022-12-18T22:49:36.520Z,33.30
2022-12-18T22:52:04.392Z,30.17
2022-12-18T22:54:31.924Z,30.77
2022-12-18T22:56:59.491Z,30.07
2022-12-18T22:59:27.012Z,29.90
2022-12-18T23:01:59.004Z,30.93
2022-12-18T23:04:28.564Z,29.63
2022-12-18T23:07:05.353Z,30.40
2022-12-18T23:09:33.452Z,29.53
2022-12-18T23:12:01.787Z,30.33
2022-12-18T23:14:29.989Z,30.23
2022-12-18T23:16:57.523Z,29.47
2022-12-18T23:19:25.550Z,30.23
2022-12-18T23:21:54.773Z,31.60
2022-12-18T23:24:26.101Z,29.63
2022-12-18T23:26:53.675Z,29.83
2022-12-18T23:29:21.406Z,30.43
2022-12-18T23:31:49.008Z,37.87
2022-12-18T23:34:17.797Z,34.37
2022-12-18T23:36:46.960Z,27.53
2022-12-18T23:39:24.061Z,26.30
2022-12-18T23:41:59.502Z,26.63
2022-12-18T23:44:27.192Z,27.07
2022-12-18T23:46:55.613Z,26.30
2022-12-18T23:49:23.787Z,26.40
2022-12-18T23:51:51.335Z,27.53
2022-12-18T23:54:19.536Z,29.17
2022-12-18T23:57:02.415Z,42.30
2022-12-18T23:59:29.941Z,41.40
